Terminal Aerodrome Forecast
Issued by NWS

Home | Current Version | Previous Version | Text Only | Print | Product List | Glossary On
Versions: 1 2 3 4 5 6 7 8 9 10 11 12 13 14
665
FTAK31 PAJN 241201 AAA
TAFASI
TAF AMD
PASI 241201Z 2412/2512 31005KT P6SM -RA VCTS SCT025CB OVC040
      WS020/14030KT
     FM241330 31004KT P6SM -RA OVC040 WS020/14030KT
     FM242200 16009KT P6SM -RA OVC035
     FM250200 18007KT P6SM VCSH BKN025 OVC035=

USA.gov is the U.S. government's official web portal to all federal, state and local government web resources and services.